createdAt,value
2019-01-04T00:01:36.927Z,22.27
2019-01-04T00:04:09.914Z,20.93
2019-01-04T00:06:40.194Z,22.23
2019-01-04T00:09:10.481Z,19.43
2019-01-04T00:11:40.782Z,20.43
2019-01-04T00:14:11.064Z,20.97
2019-01-04T00:16:41.342Z,22.97
2019-01-04T00:19:11.591Z,21.03
2019-01-04T00:21:41.824Z,20.27
2019-01-04T00:24:12.102Z,19.57
2019-01-04T00:26:42.370Z,14.37
2019-01-04T00:29:12.455Z,15.07
2019-01-04T00:31:42.767Z,12.80
2019-01-04T00:34:13.053Z,14.23
2019-01-04T00:36:43.232Z,13.53
2019-01-04T00:39:13.525Z,15.73
2019-01-04T00:41:43.820Z,18.57
2019-01-04T00:44:14.195Z,16.77
2019-01-04T00:46:45.513Z,19.53
2019-01-04T00:49:15.798Z,15.80
2019-01-04T00:51:46.032Z,16.80
2019-01-04T00:54:16.183Z,16.23
2019-01-04T00:57:23.370Z,17.30
2019-01-04T01:00:34.957Z,15.37
2019-01-04T01:03:48.500Z,17.40
2019-01-04T01:07:07.566Z,17.50
2019-01-04T01:10:30.465Z,18.73
2019-01-04T01:13:52.765Z,21.73
2019-01-04T01:16:59.335Z,21.33
2019-01-04T01:20:15.229Z,26.80
2019-01-04T01:23:34.805Z,25.40
2019-01-04T01:26:32.777Z,24.40
2019-01-04T01:30:11.097Z,25.13
2019-01-04T01:33:08.452Z,21.53
2019-01-04T01:36:18.100Z,22.13
2019-01-04T01:39:28.257Z,18.57
2019-01-04T01:42:44.250Z,16.60
2019-01-04T01:45:48.676Z,20.70
2019-01-04T01:48:26.436Z,20.07
2019-01-04T01:51:23.144Z,21.67
2019-01-04T01:53:53.365Z,19.10
2019-01-04T01:56:23.607Z,23.07
2019-01-04T01:58:53.904Z,22.20
2019-01-04T02:01:24.179Z,22.03
2019-01-04T02:03:54.545Z,20.07
2019-01-04T02:06:24.849Z,19.97
2019-01-04T02:08:55.144Z,19.80
2019-01-04T02:11:25.358Z,23.67
2019-01-04T02:13:55.596Z,20.13
2019-01-04T02:16:25.942Z,22.77
2019-01-04T02:18:56.218Z,20.57
2019-01-04T02:21:26.498Z,20.30
2019-01-04T02:23:56.810Z,19.90
2019-01-04T02:26:27.064Z,22.37
2019-01-04T02:28:57.374Z,20.63
2019-01-04T02:31:27.694Z,27.73
2019-01-04T02:33:57.916Z,24.73
2019-01-04T02:36:28.217Z,20.70
2019-01-04T02:38:58.610Z,24.67
2019-01-04T02:41:28.931Z,21.70
2019-01-04T02:43:59.177Z,21.90
2019-01-04T02:46:29.459Z,22.03
2019-01-04T02:49:00.699Z,21.37
2019-01-04T02:51:30.989Z,20.00
2019-01-04T02:54:01.282Z,23.17
2019-01-04T02:56:31.486Z,23.97
2019-01-04T02:59:01.720Z,24.57
2019-01-04T03:01:32.205Z,20.70
2019-01-04T03:04:02.429Z,22.60
2019-01-04T03:06:32.747Z,27.43
2019-01-04T03:09:03.355Z,27.67
2019-01-04T03:11:33.652Z,22.90
2019-01-04T03:14:04.207Z,21.37
2019-01-04T03:16:35.605Z,25.37
2019-01-04T03:19:05.996Z,24.93
2019-01-04T03:21:36.253Z,24.23
2019-01-04T03:24:06.438Z,19.17
2019-01-04T03:26:36.728Z,26.17
2019-01-04T03:29:07.053Z,22.63
2019-01-04T03:31:37.274Z,25.10
2019-01-04T03:34:07.632Z,26.23
2019-01-04T03:36:37.868Z,24.57
2019-01-04T03:39:08.110Z,21.37
2019-01-04T03:41:38.381Z,27.20
2019-01-04T03:44:08.617Z,21.80
2019-01-04T03:46:38.860Z,22.30
2019-01-04T03:49:09.173Z,25.27
2019-01-04T03:51:40.726Z,24.53
2019-01-04T03:54:10.992Z,28.73
2019-01-04T03:56:41.255Z,26.63
2019-01-04T03:59:11.679Z,23.30
2019-01-04T04:01:41.934Z,23.03
2019-01-04T04:04:12.253Z,24.50
2019-01-04T04:06:42.394Z,21.93
2019-01-04T04:09:12.763Z,22.47
2019-01-04T04:11:43.149Z,23.07
2019-01-04T04:14:13.384Z,19.90
2019-01-04T04:16:43.586Z,24.67
2019-01-04T04:19:13.829Z,21.60
2019-01-04T04:21:44.011Z,20.37
2019-01-04T04:24:14.253Z,22.43
2019-01-04T04:26:44.527Z,20.80
2019-01-04T04:29:14.768Z,20.77
2019-01-04T04:31:44.982Z,19.20
2019-01-04T04:34:15.340Z,19.80
2019-01-04T04:36:45.573Z,20.37
2019-01-04T04:39:15.933Z,18.50
2019-01-04T04:41:46.271Z,18.60
2019-01-04T04:44:16.556Z,20.30
2019-01-04T04:46:46.875Z,17.40
2019-01-04T04:49:17.260Z,20.53
2019-01-04T04:51:47.481Z,18.07
2019-01-04T04:54:17.894Z,18.73
2019-01-04T04:56:48.218Z,16.60
2019-01-04T04:59:18.474Z,15.60
2019-01-04T05:01:48.692Z,16.40
2019-01-04T05:04:18.942Z,19.37
2019-01-04T05:06:49.237Z,18.83
2019-01-04T05:09:19.458Z,16.73
2019-01-04T05:11:49.714Z,17.37
2019-01-04T05:14:20.009Z,19.50
2019-01-04T05:16:50.229Z,18.87
2019-01-04T05:19:20.466Z,16.13
2019-01-04T05:21:50.746Z,17.17
2019-01-04T05:24:20.968Z,20.77
2019-01-04T05:26:51.276Z,17.10
2019-01-04T05:29:21.536Z,18.60
2019-01-04T05:31:51.745Z,16.83
2019-01-04T05:34:22.043Z,17.57
2019-01-04T05:36:52.306Z,16.83
2019-01-04T05:39:22.545Z,16.10
2019-01-04T05:41:53.052Z,17.60
2019-01-04T05:44:23.280Z,13.03
2019-01-04T05:46:53.499Z,16.17
2019-01-04T05:49:23.777Z,15.27
2019-01-04T05:51:54.017Z,20.40
2019-01-04T05:54:24.228Z,19.00
2019-01-04T05:56:55.660Z,23.27
2019-01-04T05:59:25.931Z,26.97
2019-01-04T06:01:56.055Z,26.30
2019-01-04T06:04:26.344Z,20.83
2019-01-04T06:06:56.751Z,18.97
2019-01-04T06:09:27.002Z,17.97
2019-01-04T06:11:57.203Z,18.60
2019-01-04T06:14:27.468Z,16.10
2019-01-04T06:16:57.652Z,17.43
2019-01-04T06:19:28.000Z,14.97
2019-01-04T06:21:58.239Z,15.77
2019-01-04T06:24:28.438Z,13.73
2019-01-04T06:26:58.723Z,13.63
2019-01-04T06:29:28.997Z,16.03
2019-01-04T06:31:59.237Z,14.33
2019-01-04T06:34:29.479Z,15.50
2019-01-04T06:36:59.784Z,17.83
2019-01-04T06:39:30.044Z,16.50
2019-01-04T06:42:00.973Z,17.10
2019-01-04T06:44:31.218Z,15.67
2019-01-04T06:47:32.547Z,20.30
2019-01-04T06:50:02.727Z,19.60
2019-01-04T06:52:32.922Z,20.30
2019-01-04T06:56:09.261Z,18.70
2019-01-04T06:58:40.537Z,17.40
2019-01-04T07:01:10.743Z,17.87
2019-01-04T07:03:41.478Z,16.37
2019-01-04T07:06:11.753Z,14.10
2019-01-04T07:08:42.057Z,18.07
2019-01-04T07:11:12.318Z,19.57
2019-01-04T07:13:42.570Z,15.20
2019-01-04T07:16:12.841Z,18.53
2019-01-04T07:18:43.128Z,19.80
2019-01-04T07:21:14.138Z,17.43
2019-01-04T07:23:44.415Z,21.77
2019-01-04T07:26:14.673Z,18.33
2019-01-04T07:28:46.106Z,17.80
2019-01-04T07:31:16.393Z,20.13
2019-01-04T07:33:46.679Z,17.57
2019-01-04T07:36:16.995Z,20.63
2019-01-04T07:38:47.414Z,21.37
2019-01-04T07:41:17.788Z,23.10
2019-01-04T07:43:48.050Z,20.13
2019-01-04T07:46:18.314Z,18.30
2019-01-04T07:48:48.634Z,18.60
2019-01-04T07:51:18.902Z,22.17
2019-01-04T07:53:49.097Z,18.73
2019-01-04T07:56:19.397Z,23.00
2019-01-04T07:58:50.644Z,25.07
2019-01-04T08:01:20.881Z,21.63
2019-01-04T08:03:51.183Z,21.47
2019-01-04T08:06:22.585Z,25.00
2019-01-04T08:08:52.766Z,22.40
2019-01-04T08:11:23.278Z,21.80
2019-01-04T08:13:53.550Z,23.30
2019-01-04T08:16:23.921Z,27.37
2019-01-04T08:18:54.522Z,28.67
2019-01-04T08:21:24.698Z,23.23
2019-01-04T08:23:54.965Z,21.97
2019-01-04T08:26:25.324Z,22.83
2019-01-04T08:28:55.575Z,21.50
2019-01-04T08:31:25.799Z,20.20
2019-01-04T08:33:56.108Z,21.00
2019-01-04T08:36:26.372Z,18.07
2019-01-04T08:38:56.558Z,18.57
2019-01-04T08:41:26.865Z,19.10
2019-01-04T08:43:57.245Z,22.63
2019-01-04T08:46:27.553Z,22.50
2019-01-04T08:48:57.807Z,21.67
2019-01-04T08:51:28.081Z,22.63
2019-01-04T08:54:00.324Z,21.57
2019-01-04T08:56:33.154Z,17.27
2019-01-04T08:59:03.474Z,16.90
2019-01-04T09:01:34.733Z,17.43
2019-01-04T09:04:04.995Z,17.30
2019-01-04T09:06:35.445Z,17.53
2019-01-04T09:09:07.321Z,15.10
2019-01-04T09:11:37.578Z,17.80
2019-01-04T09:14:07.873Z,16.80
2019-01-04T09:16:38.097Z,18.67
2019-01-04T09:19:08.463Z,18.27
2019-01-04T09:21:38.744Z,15.70
2019-01-04T09:24:08.939Z,16.27
2019-01-04T09:26:39.249Z,15.43
2019-01-04T09:29:09.662Z,16.73
2019-01-04T09:31:39.924Z,15.67
2019-01-04T09:34:10.189Z,19.10
2019-01-04T09:36:40.477Z,14.60
2019-01-04T09:39:10.673Z,15.43
2019-01-04T09:42:06.173Z,16.50
2019-01-04T09:44:36.588Z,19.80
2019-01-04T09:47:06.842Z,17.30
2019-01-04T09:49:37.148Z,14.90
2019-01-04T09:52:07.417Z,17.00
2019-01-04T09:54:37.784Z,16.47
2019-01-04T09:57:08.078Z,18.60
2019-01-04T09:59:38.354Z,16.93
2019-01-04T10:02:09.941Z,19.40
2019-01-04T10:04:40.190Z,17.37
2019-01-04T10:07:10.454Z,17.33
2019-01-04T10:09:40.925Z,20.03
2019-01-04T10:12:11.362Z,16.73
2019-01-04T10:14:43.095Z,16.80
2019-01-04T10:17:16.528Z,17.13
2019-01-04T10:19:48.657Z,20.97
2019-01-04T10:22:18.984Z,19.93
2019-01-04T10:24:51.245Z,20.03
2019-01-04T10:27:21.358Z,18.30
2019-01-04T10:29:52.107Z,20.37
2019-01-04T10:32:22.462Z,18.03
2019-01-04T10:34:52.716Z,21.43
2019-01-04T10:37:22.966Z,19.77
2019-01-04T10:39:53.252Z,18.10
2019-01-04T10:42:23.512Z,26.13
2019-01-04T10:44:53.986Z,22.33
2019-01-04T10:47:24.374Z,17.70
2019-01-04T10:49:54.694Z,22.83
2019-01-04T10:52:25.005Z,20.57
2019-01-04T10:54:55.477Z,18.57
2019-01-04T10:57:25.823Z,23.40
2019-01-04T10:59:55.989Z,23.47
2019-01-04T11:02:26.279Z,22.80
2019-01-04T11:04:56.523Z,19.50
2019-01-04T11:07:26.726Z,20.97
2019-01-04T11:09:57.140Z,19.10
2019-01-04T11:12:27.389Z,20.13
2019-01-04T11:14:57.569Z,20.30
2019-01-04T11:17:27.860Z,20.23
2019-01-04T11:19:58.154Z,20.23
2019-01-04T11:23:11.124Z,22.83
2019-01-04T11:26:17.255Z,17.60
2019-01-04T11:28:53.789Z,19.63
2019-01-04T11:31:54.901Z,18.20
2019-01-04T11:35:05.470Z,24.20
2019-01-04T11:38:27.812Z,18.33
2019-01-04T11:41:30.288Z,18.60
2019-01-04T11:44:25.201Z,20.97
2019-01-04T11:47:30.727Z,19.90
2019-01-04T11:50:35.336Z,23.80
2019-01-04T11:53:13.703Z,21.13
2019-01-04T11:55:43.969Z,18.60
2019-01-04T11:58:14.325Z,24.27
2019-01-04T12:00:44.627Z,21.73
2019-01-04T12:03:14.975Z,20.90
2019-01-04T12:05:45.333Z,20.17
2019-01-04T12:08:15.594Z,20.83
2019-01-04T12:10:46.147Z,19.53
2019-01-04T12:13:16.357Z,20.13
2019-01-04T12:15:46.717Z,17.87
2019-01-04T12:18:16.974Z,24.47
2019-01-04T12:20:47.236Z,17.20
2019-01-04T12:23:17.602Z,20.60
2019-01-04T12:25:47.913Z,20.53
2019-01-04T12:28:18.162Z,17.37
2019-01-04T12:30:48.509Z,20.70
2019-01-04T12:33:18.961Z,14.43
2019-01-04T12:35:49.216Z,18.47
2019-01-04T12:38:19.518Z,18.70
2019-01-04T12:40:49.801Z,17.27
2019-01-04T12:43:20.088Z,17.10
2019-01-04T12:45:50.376Z,14.23
2019-01-04T12:48:20.640Z,15.97
2019-01-04T12:50:50.884Z,17.13
2019-01-04T12:53:21.168Z,21.17
2019-01-04T12:55:51.377Z,19.77
2019-01-04T12:58:21.610Z,17.07
2019-01-04T13:00:51.914Z,21.80
2019-01-04T13:03:22.133Z,19.40
2019-01-04T13:05:52.472Z,20.87
2019-01-04T13:08:22.882Z,21.53
2019-01-04T13:10:53.161Z,20.30
2019-01-04T13:13:23.449Z,23.70
2019-01-04T13:15:53.740Z,21.63
2019-01-04T13:18:24.022Z,19.77
2019-01-04T13:20:54.364Z,22.93
2019-01-04T13:23:24.629Z,20.80
2019-01-04T13:25:54.859Z,21.47
2019-01-04T13:28:25.106Z,20.23
2019-01-04T13:30:55.392Z,18.97
2019-01-04T13:33:25.802Z,22.63
2019-01-04T13:35:56.576Z,19.90
2019-01-04T13:38:26.729Z,21.53
2019-01-04T13:40:56.850Z,21.17
2019-01-04T13:43:27.234Z,23.77
2019-01-04T13:45:57.516Z,21.33
2019-01-04T13:48:27.816Z,21.40
2019-01-04T13:50:58.019Z,22.13
2019-01-04T13:53:28.209Z,21.20
2019-01-04T13:55:58.719Z,21.60
2019-01-04T13:58:28.980Z,22.07
2019-01-04T14:00:59.278Z,22.20
2019-01-04T14:03:29.533Z,23.17
2019-01-04T14:05:59.733Z,21.60
2019-01-04T14:08:30.015Z,19.40
2019-01-04T14:11:00.367Z,19.70
2019-01-04T14:13:30.625Z,22.67
2019-01-04T14:16:00.866Z,22.43
2019-01-04T14:18:31.037Z,20.70
2019-01-04T14:21:01.296Z,22.97
2019-01-04T14:23:31.609Z,21.33
2019-01-04T14:26:01.806Z,23.73
2019-01-04T14:28:32.053Z,23.50
2019-01-04T14:31:02.431Z,25.87
2019-01-04T14:33:32.672Z,25.67
2019-01-04T14:36:03.074Z,25.33
2019-01-04T14:38:33.421Z,26.13
2019-01-04T14:41:03.676Z,26.80
2019-01-04T14:43:33.890Z,26.77
2019-01-04T14:46:21.018Z,26.00
2019-01-04T14:48:53.923Z,24.33
2019-01-04T14:51:24.357Z,27.97
2019-01-04T14:53:56.565Z,36.67
2019-01-04T14:56:26.787Z,49.97
2019-01-04T14:58:57.092Z,57.90
2019-01-04T15:01:27.663Z,52.00
2019-01-04T15:03:57.842Z,44.87
2019-01-04T15:06:28.167Z,43.43
2019-01-04T15:08:58.445Z,67.40
2019-01-04T15:11:28.622Z,51.47
2019-01-04T15:13:59.104Z,45.57
2019-01-04T15:16:29.369Z,44.23
2019-01-04T15:18:59.653Z,39.93
2019-01-04T15:21:29.911Z,37.33
2019-01-04T15:24:00.141Z,32.23
2019-01-04T15:26:30.405Z,28.70
2019-01-04T15:29:02.293Z,32.80
2019-01-04T15:31:33.695Z,39.90
2019-01-04T15:34:05.759Z,37.90
2019-01-04T15:36:37.979Z,30.17
2019-01-04T15:39:10.659Z,30.57
2019-01-04T15:41:40.904Z,36.00
2019-01-04T15:44:11.112Z,28.77
2019-01-04T15:46:41.450Z,28.17
2019-01-04T15:49:11.948Z,30.40
2019-01-04T15:51:42.271Z,31.00
2019-01-04T15:54:12.516Z,34.20
2019-01-04T15:56:42.785Z,32.70
2019-01-04T15:59:13.140Z,32.70
2019-01-04T16:01:43.274Z,35.13
2019-01-04T16:04:13.552Z,33.33
2019-01-04T16:06:43.815Z,41.13
2019-01-04T16:09:13.961Z,43.20
2019-01-04T16:11:44.176Z,41.77
2019-01-04T16:14:14.450Z,47.53
2019-01-04T16:16:44.916Z,37.43
2019-01-04T16:19:15.146Z,32.50
2019-01-04T16:21:45.431Z,33.77
2019-01-04T16:24:15.704Z,32.00
2019-01-04T16:26:45.959Z,29.50
2019-01-04T16:29:16.173Z,27.63
2019-01-04T16:31:46.460Z,27.57
2019-01-04T16:34:16.702Z,26.40
2019-01-04T16:36:46.984Z,26.63
2019-01-04T16:39:17.213Z,28.33
2019-01-04T16:41:47.470Z,29.30
2019-01-04T16:44:17.745Z,44.67
2019-01-04T16:46:48.045Z,34.53
2019-01-04T16:49:18.838Z,31.03
2019-01-04T16:51:49.262Z,30.13
2019-01-04T16:54:19.473Z,31.77
2019-01-04T16:56:49.593Z,31.73
2019-01-04T16:59:19.907Z,25.60
2019-01-04T17:01:50.158Z,25.97
2019-01-04T17:04:21.374Z,27.50
2019-01-04T17:06:51.652Z,25.73
2019-01-04T17:09:24.129Z,25.20
2019-01-04T17:11:56.195Z,24.33
2019-01-04T17:14:27.413Z,27.33
2019-01-04T17:16:57.634Z,29.97
2019-01-04T17:19:27.999Z,25.10
2019-01-04T17:21:58.329Z,25.53
2019-01-04T17:24:28.594Z,25.50
2019-01-04T17:26:58.895Z,32.97
2019-01-04T17:29:29.294Z,25.80
2019-01-04T17:31:59.565Z,29.43
2019-01-04T17:34:31.089Z,29.00
2019-01-04T17:37:01.516Z,33.77
2019-01-04T17:39:33.097Z,33.10
2019-01-04T17:42:03.934Z,30.17
2019-01-04T17:44:36.797Z,35.27
2019-01-04T17:47:08.425Z,30.53
2019-01-04T17:49:38.685Z,32.93
2019-01-04T17:52:08.878Z,26.30
2019-01-04T17:54:39.223Z,45.73
2019-01-04T17:57:09.660Z,23.47
2019-01-04T17:59:39.868Z,25.77
2019-01-04T18:02:10.178Z,26.87
2019-01-04T18:04:40.455Z,29.00
2019-01-04T18:07:10.676Z,26.63
2019-01-04T18:09:41.130Z,26.03
2019-01-04T18:12:11.508Z,24.27
2019-01-04T18:14:41.703Z,24.43
2019-01-04T18:17:11.933Z,26.07
2019-01-04T18:19:42.178Z,25.70
2019-01-04T18:22:12.481Z,26.47
2019-01-04T18:24:42.756Z,24.03
2019-01-04T18:27:13.060Z,22.33
2019-01-04T18:29:43.366Z,25.77
2019-01-04T18:32:13.734Z,22.50
2019-01-04T18:34:43.992Z,24.80
2019-01-04T18:37:14.252Z,27.00
2019-01-04T18:39:44.643Z,23.97
2019-01-04T18:42:14.892Z,23.30
2019-01-04T18:44:45.076Z,22.73
2019-01-04T18:47:15.350Z,26.20
2019-01-04T18:49:45.739Z,25.27
2019-01-04T18:52:16.070Z,22.63
2019-01-04T18:54:46.992Z,26.00
2019-01-04T18:57:17.252Z,28.20
2019-01-04T18:59:47.602Z,22.53
2019-01-04T19:02:17.894Z,26.53
2019-01-04T19:04:48.185Z,32.43
2019-01-04T19:07:18.429Z,42.40
2019-01-04T19:09:48.595Z,45.73
2019-01-04T19:12:18.831Z,38.40
2019-01-04T19:14:48.985Z,42.67
2019-01-04T19:17:19.360Z,34.30
2019-01-04T19:19:49.625Z,36.50
2019-01-04T19:22:19.816Z,32.77
2019-01-04T19:24:50.325Z,35.47
2019-01-04T19:27:20.517Z,30.97
2019-01-04T19:29:50.824Z,32.90
2019-01-04T19:32:21.581Z,34.17
2019-01-04T19:34:52.722Z,44.57
2019-01-04T19:37:23.046Z,82.37
2019-01-04T19:39:53.265Z,38.13
2019-01-04T19:42:23.529Z,32.70
2019-01-04T19:44:53.766Z,32.10
2019-01-04T19:47:24.089Z,31.23
2019-01-04T19:49:54.350Z,34.10
2019-01-04T19:52:24.552Z,94.23
2019-01-04T19:54:54.734Z,36.03
2019-01-04T19:57:24.999Z,35.63
2019-01-04T19:59:55.633Z,30.87
2019-01-04T20:02:26.102Z,30.60
2019-01-04T20:04:56.358Z,31.90
2019-01-04T20:08:24.400Z,35.87
2019-01-04T20:12:11.934Z,32.47
2019-01-04T20:15:37.040Z,33.40
2019-01-04T20:18:27.538Z,27.67
2019-01-04T20:21:14.656Z,31.77
2019-01-04T20:24:16.212Z,33.63
2019-01-04T20:27:05.992Z,29.00
2019-01-04T20:29:54.028Z,31.60
2019-01-04T20:32:58.451Z,32.10
2019-01-04T20:35:46.085Z,30.30
2019-01-04T20:38:50.709Z,34.27
2019-01-04T20:41:35.061Z,34.10
2019-01-04T20:44:23.407Z,32.63
2019-01-04T20:47:15.337Z,31.27
2019-01-04T20:50:04.707Z,26.40
2019-01-04T20:53:06.264Z,36.67
2019-01-04T20:56:10.993Z,41.43
2019-01-04T20:58:59.238Z,38.30
2019-01-04T21:01:47.379Z,33.00
2019-01-04T21:04:35.418Z,40.30
2019-01-04T21:07:24.788Z,40.27
2019-01-04T21:10:13.082Z,35.93
2019-01-04T21:13:09.879Z,35.80
2019-01-04T21:15:57.926Z,40.57
2019-01-04T21:18:44.111Z,37.03
2019-01-04T21:21:31.949Z,39.70
2019-01-04T21:24:20.087Z,33.97
2019-01-04T21:27:11.807Z,40.40
2019-01-04T21:30:06.203Z,43.53
2019-01-04T21:32:55.468Z,40.43
2019-01-04T21:35:43.509Z,44.13
2019-01-04T21:38:32.779Z,41.07
2019-01-04T21:41:21.942Z,43.90
2019-01-04T21:44:18.877Z,30.37
2019-01-04T21:47:14.197Z,37.30
2019-01-04T21:50:12.375Z,32.77
2019-01-04T21:53:04.406Z,35.63
2019-01-04T21:55:51.826Z,38.87
2019-01-04T21:58:39.666Z,36.47
2019-01-04T22:01:28.112Z,49.47
2019-01-04T22:04:26.494Z,47.77
2019-01-04T22:07:14.329Z,32.57
2019-01-04T22:10:09.843Z,31.97
2019-01-04T22:13:01.775Z,39.50
2019-01-04T22:15:48.072Z,49.93
2019-01-04T22:18:46.350Z,39.20
2019-01-04T22:21:47.599Z,38.07
2019-01-04T22:24:35.332Z,43.17
2019-01-04T22:27:43.136Z,33.40
2019-01-04T22:30:24.814Z,34.40
2019-01-04T22:33:29.247Z,29.40
2019-01-04T22:36:18.524Z,30.10
2019-01-04T22:39:06.353Z,38.47
2019-01-04T22:41:54.287Z,39.40
2019-01-04T22:44:49.186Z,42.17
2019-01-04T22:47:50.231Z,42.70
2019-01-04T22:50:37.858Z,35.60
2019-01-04T22:53:25.590Z,36.90
2019-01-04T22:56:29.194Z,33.77
2019-01-04T22:59:17.232Z,34.67
2019-01-04T23:02:06.602Z,39.67
2019-01-04T23:04:55.870Z,39.00
2019-01-04T23:07:51.078Z,35.60
2019-01-04T23:10:55.602Z,39.53
2019-01-04T23:13:44.767Z,47.60
2019-01-04T23:16:40.180Z,45.10
2019-01-04T23:19:28.219Z,40.40
2019-01-04T23:22:29.261Z,43.13
2019-01-04T23:25:36.962Z,32.70
2019-01-04T23:28:26.229Z,44.00
2019-01-04T23:31:15.397Z,45.63
2019-01-04T23:34:16.848Z,42.37
2019-01-04T23:37:15.127Z,35.17
2019-01-04T23:40:19.448Z,43.57
2019-01-04T23:43:07.693Z,39.70
2019-01-04T23:46:06.587Z,38.07
2019-01-04T23:48:58.824Z,39.83
2019-01-04T23:51:46.862Z,41.17
2019-01-04T23:54:39.202Z,36.37
2019-01-04T23:57:27.035Z,41.00
